Time;durP1;ratioP1;P1;durP2;ratioP2;P2;SDS_P1;SDS_P2;PMS_P1;PMS_P2;Temp;Humidity;BMP_temperature;BMP_pressure;BME280_temperature;BME280_humidity;BME280_pressure;Samples;Min_cycle;Max_cycle;Signal;HPM_P1;HPM_P2
2022/04/22 00:01:56;;;;;;;5.25;4.75;;;;;;;11.46;85.54;99853.09;4986275;28;20050;-88
2022/04/22 00:04:22;;;;;;;5.78;4.95;;;;;;;10.80;86.00;99759.84;4972702;28;20051;-86
2022/04/22 00:06:49;;;;;;;5.55;5.15;;;;;;;9.97;86.40;99624.19;4971706;28;20066;-86
2022/04/22 00:09:16;;;;;;;6.47;5.88;;;;;;;10.01;86.18;99621.06;4969378;28;20059;-86
2022/04/22 00:11:43;;;;;;;5.45;4.95;;;;;;;10.78;86.10;99747.72;4968639;28;20540;-85
2022/04/22 00:14:10;;;;;;;5.38;4.88;;;;;;;11.47;86.93;99858.25;4968621;28;20086;-88
2022/04/22 00:16:37;;;;;;;5.60;5.13;;;;;;;10.00;86.36;99602.66;4968425;28;20102;-86
2022/04/22 00:19:04;;;;;;;5.97;5.47;;;;;;;10.73;85.28;99697.75;4968292;28;20047;-85
2022/04/22 00:21:31;;;;;;;5.82;5.25;;;;;;;10.27;85.95;99652.88;4984184;28;20053;-87
2022/04/22 00:23:58;;;;;;;6.32;5.82;;;;;;;10.83;86.38;99737.47;4970911;28;20051;-88
2022/04/22 00:26:25;;;;;;;6.00;5.35;;;;;;;11.47;86.73;99858.25;4929577;29;20446;-87
2022/04/22 00:28:52;;;;;;;5.93;5.53;;;;;;;11.32;86.80;99812.03;4961423;28;20094;-86
2022/04/22 00:31:19;;;;;;;5.82;5.32;;;;;;;11.21;86.88;99778.59;4930728;29;20052;-85
2022/04/22 00:33:46;;;;;;;5.55;5.05;;;;;;;10.69;86.85;99689.25;4929551;29;20493;-88
2022/04/22 00:36:12;;;;;;;5.63;5.13;;;;;;;10.32;86.49;99617.13;4961409;28;20142;-86
2022/04/22 00:38:39;;;;;;;6.18;5.57;;;;;;;11.13;86.81;99744.03;4929541;29;20494;-86
2022/04/22 00:41:06;;;;;;;5.68;5.18;;;;;;;11.55;86.45;99802.47;4930421;29;20154;-85
2022/04/22 00:43:42;;;;;;;5.22;4.82;;;;;;;11.44;87.20;99786.00;4961178;28;20066;-83
2022/04/22 00:46:09;;;;;;;6.90;6.20;;;;;;;10.84;86.94;99684.19;4929079;29;20272;-86
2022/04/22 00:48:36;;;;;;;6.18;5.50;;;;;;;11.25;86.83;99745.41;4929117;29;20395;-87
2022/04/22 00:51:07;;;;;;;5.85;5.35;;;;;;;11.33;87.14;99765.84;4930830;29;20051;-86
2022/04/22 00:53:35;;;;;;;5.90;5.40;;;;;;;11.40;87.15;99760.72;4928316;29;20055;-86
2022/04/22 00:56:04;;;;;;;6.13;5.63;;;;;;;11.49;87.43;99771.22;4929333;29;20052;-87
2022/04/22 00:58:31;;;;;;;5.32;4.90;;;;;;;10.87;87.54;99662.63;4929027;29;20070;-87
2022/04/22 01:00:58;;;;;;;6.03;5.53;;;;;;;10.36;87.34;99565.41;4928800;29;20120;-87
2022/04/22 01:03:25;;;;;;;7.18;6.57;;;;;;;11.60;87.21;99755.94;4960753;28;20102;-87
2022/04/22 01:11:32;;;;;;;6.28;5.72;;;;;;;11.51;87.27;99757.78;4920206;29;20056;-87
2022/04/22 01:13:59;;;;;;;6.22;5.63;;;;;;;11.54;87.42;99742.31;4929117;29;20050;-87
2022/04/22 01:16:26;;;;;;;6.55;6.05;;;;;;;11.51;87.75;99734.69;4960674;28;20055;-88
2022/04/22 01:18:53;;;;;;;5.82;5.20;;;;;;;11.64;87.41;99746.66;4960699;28;20139;-84
2022/04/22 01:21:20;;;;;;;6.40;5.80;;;;;;;11.51;87.88;99717.91;4933132;29;20055;-87
2022/04/22 01:23:47;;;;;;;6.47;5.88;;;;;;;11.57;87.21;99716.41;4951645;28;20051;-89
2022/04/22 01:26:15;;;;;;;6.70;6.10;;;;;;;11.50;87.04;99705.59;4970883;28;20058;-87
2022/04/22 01:28:41;;;;;;;6.90;6.30;;;;;;;11.71;86.70;99745.81;4969034;28;20058;-86
2022/04/22 01:31:08;;;;;;;8.98;5.93;;;;;;;11.74;87.53;99731.38;4967508;28;20057;-87
2022/04/22 01:33:36;;;;;;;6.22;5.72;;;;;;;11.23;86.67;99646.44;4967023;28;20055;-86
2022/04/22 01:36:02;;;;;;;6.68;6.07;;;;;;;11.77;87.10;99725.72;4967006;28;20059;-87
2022/04/22 01:38:30;;;;;;;6.78;6.18;;;;;;;11.65;86.73;99695.13;4966875;28;20051;-86
2022/04/22 01:40:56;;;;;;;7.20;6.60;;;;;;;11.72;86.67;99720.91;4967358;28;20058;-86
2022/04/22 01:43:25;;;;;;;6.60;6.10;;;;;;;10.59;86.39;99524.00;4967094;28;20055;-85
2022/04/22 01:45:52;;;;;;;6.70;6.20;;;;;;;10.63;86.64;99543.09;4967083;28;20194;-87
2022/04/22 01:48:20;;;;;;;7.15;6.55;;;;;;;11.82;86.63;99723.41;4966901;28;20437;-87
2022/04/22 01:50:47;;;;;;;7.93;7.22;;;;;;;11.76;86.92;99714.25;4966793;28;20765;-87
2022/04/22 01:53:14;;;;;;;8.27;7.50;;;;;;;11.72;87.04;99694.34;4966990;28;20398;-88
2022/04/22 01:55:41;;;;;;;8.30;7.50;;;;;;;11.85;87.07;99715.09;4967189;28;20146;-86
2022/04/22 01:58:08;;;;;;;6.10;5.53;;;;;;;11.76;85.91;99694.81;4966627;28;20065;-84
2022/04/22 02:00:34;;;;;;;4.95;4.55;;;;;;;11.60;84.47;99662.91;4967159;28;20050;-88
2022/04/22 02:03:02;;;;;;;4.00;3.67;;;;;;;10.61;83.82;99508.75;4969486;28;20509;-88
2022/04/22 02:05:29;;;;;;;4.97;4.57;;;;;;;10.76;83.95;99535.50;4974895;28;20101;-88
2022/04/22 02:07:55;;;;;;;4.65;4.13;;;;;;;10.60;84.19;99499.13;4974697;28;20047;-87
2022/04/22 02:10:22;;;;;;;4.88;4.50;;;;;;;11.37;84.21;99631.66;4990294;28;20480;-87
2022/04/22 02:12:49;;;;;;;5.40;4.90;;;;;;;10.95;84.54;99570.69;4990219;28;20042;-87
2022/04/22 02:15:18;;;;;;;5.13;4.72;;;;;;;10.20;84.24;99454.75;4970470;28;20061;-88
2022/04/22 02:17:45;;;;;;;4.95;4.55;;;;;;;11.16;84.19;99610.06;4970046;28;20051;-88
2022/04/22 02:20:12;;;;;;;4.90;4.43;;;;;;;11.04;83.83;99602.41;4970535;28;20229;-85
2022/04/22 02:22:39;;;;;;;5.05;4.63;;;;;;;11.05;83.75;99596.09;4969989;28;20058;-87
2022/04/22 02:25:08;;;;;;;4.68;4.28;;;;;;;10.73;83.59;99535.81;4952262;28;20061;-86
2022/04/22 02:30:23;;;;;;;5.35;4.82;;;;;;;11.13;83.90;99621.84;4951763;28;20055;-86
2022/04/22 02:32:50;;;;;;;5.18;4.78;;;;;;;11.42;83.73;99660.41;4966707;28;20576;-85
2022/04/22 02:35:21;;;;;;;4.90;4.50;;;;;;;11.23;84.40;99649.09;4951154;28;20051;-85
2022/04/22 02:37:49;;;;;;;5.57;5.03;;;;;;;11.28;83.98;99660.03;4950909;28;20059;-86
2022/04/22 02:45:26;;;;;;;6.47;4.50;;;;;;;11.27;84.11;99658.41;4950653;28;20051;-86
2022/04/22 02:45:49;;;;;;;4.72;4.32;;;;;;;11.15;83.76;99662.38;4951376;28;20098;-86
2022/04/22 02:48:16;;;;;;;6.82;4.80;;;;;;;11.09;83.79;99652.38;4966295;28;20509;-86
2022/04/22 02:50:43;;;;;;;5.65;5.15;;;;;;;11.12;84.13;99662.69;4950244;28;20043;-86
2022/04/22 02:53:10;;;;;;;5.32;4.90;;;;;;;9.49;84.34;99414.41;4950212;28;20051;-85
2022/04/22 02:55:44;;;;;;;8.80;5.07;;;;;;;9.72;85.16;99456.25;4950639;28;20061;-86
2022/04/22 02:58:12;;;;;;;6.82;5.47;;;;;;;10.80;84.19;99621.78;4951933;28;20055;-88
2022/04/22 03:00:39;;;;;;;5.90;5.40;;;;;;;9.89;84.16;99460.63;4950092;28;20047;-86
2022/04/22 03:03:05;;;;;;;7.97;5.43;;;;;;;10.48;85.79;99585.34;4950069;28;20086;-86
2022/04/22 03:05:34;;;;;;;6.22;5.35;;;;;;;10.93;85.14;99649.72;4950466;28;20054;-87
2022/04/22 03:08:02;;;;;;;5.93;5.43;;;;;;;10.72;85.13;99611.13;4951707;28;20047;-85
2022/04/22 03:10:29;;;;;;;6.38;5.88;;;;;;;9.63;85.54;99453.53;4966161;28;20086;-87
2022/04/22 03:12:56;;;;;;;6.97;6.00;;;;;;;9.38;84.16;99388.19;4965853;28;20054;-87
2022/04/22 03:15:23;;;;;;;6.68;6.05;;;;;;;9.74;84.56;99462.22;4951027;28;20074;-86
2022/04/22 03:17:51;;;;;;;8.13;6.40;;;;;;;9.77;84.14;99465.38;4950340;28;20448;-85
2022/04/22 03:20:18;;;;;;;7.00;6.40;;;;;;;10.79;84.92;99622.75;4949777;28;20141;-85
2022/04/22 03:22:45;;;;;;;6.50;5.90;;;;;;;10.85;85.17;99632.75;4950386;28;20059;-86
2022/04/22 03:25:11;;;;;;;6.53;5.97;;;;;;;10.83;84.76;99618.81;4969059;28;20055;-86
2022/04/22 03:27:38;;;;;;;7.05;6.45;;;;;;;10.73;84.13;99612.81;4969168;28;20074;-84
2022/04/22 03:30:05;;;;;;;6.82;6.25;;;;;;;10.35;84.92;99555.78;4969239;28;20051;-86
2022/04/22 03:32:32;;;;;;;8.77;6.65;;;;;;;9.91;84.26;99473.72;4970230;28;20570;-87
2022/04/22 03:35:00;;;;;;;7.15;6.53;;;;;;;10.68;84.56;99599.19;4968712;28;20379;-87
2022/04/22 03:37:27;;;;;;;8.02;6.80;;;;;;;10.64;84.08;99595.19;4969070;28;20058;-88
2022/04/22 03:39:53;;;;;;;7.47;6.65;;;;;;;10.51;85.25;99585.03;4968975;28;20053;-87
2022/04/22 03:42:20;;;;;;;7.95;7.22;;;;;;;10.79;85.02;99620.13;4969345;28;20073;-86
2022/04/22 03:44:47;;;;;;;7.55;6.95;;;;;;;10.72;85.38;99605.81;4968662;28;20062;-86
2022/04/22 03:47:14;;;;;;;7.57;6.85;;;;;;;10.71;85.69;99595.38;4970299;28;20109;-87
2022/04/22 03:49:40;;;;;;;7.95;7.35;;;;;;;10.15;84.75;99499.50;4968591;28;20277;-87
2022/04/22 03:52:08;;;;;;;7.10;6.50;;;;;;;9.17;84.76;99346.19;4968665;28;20528;-85
2022/04/22 03:54:34;;;;;;;8.07;7.35;;;;;;;10.74;85.43;99611.81;4968911;28;20057;-86
2022/04/22 03:59:47;;;;;;;7.10;6.38;;;;;;;9.50;86.44;99416.06;4970211;28;20170;-86
2022/04/22 04:02:14;;;;;;;8.00;7.32;;;;;;;9.50;86.95;99431.94;4968557;28;20057;-87
2022/04/22 04:04:41;;;;;;;9.35;7.05;;;;;;;10.73;86.32;99593.38;4969742;28;20517;-86
2022/04/22 04:07:07;;;;;;;8.52;7.72;;;;;;;10.14;86.22;99497.81;4969248;28;20058;-86
2022/04/22 04:17:50;;;;;;;7.43;6.82;;;;;;;10.80;85.71;99597.03;4969746;28;20149;-86
2022/04/22 04:23:14;;;;;;;8.10;7.47;;;;;;;10.69;86.15;99559.19;4966095;28;20051;-86
2022/04/22 04:25:47;;;;;;;7.78;7.07;;;;;;;10.82;86.28;99587.91;4948670;28;20413;-86
2022/04/22 04:28:15;;;;;;;10.60;7.47;;;;;;;10.86;85.81;99578.66;4948491;28;20062;-87
2022/04/22 04:30:43;;;;;;;7.28;6.68;;;;;;;10.81;86.43;99588.94;4950433;28;20044;-87
2022/04/22 04:33:10;;;;;;;8.30;7.60;;;;;;;10.42;86.23;99528.44;4962795;28;20513;-86
2022/04/22 04:35:40;;;;;;;7.63;6.90;;;;;;;10.83;86.54;99576.31;4965394;28;20070;-85
2022/04/22 04:38:08;;;;;;;8.15;7.50;;;;;;;10.77;86.09;99576.13;4967392;28;20051;-85
2022/04/22 04:40:35;;;;;;;7.68;6.97;;;;;;;10.62;86.37;99560.00;4967410;28;20042;-87
2022/04/22 04:43:02;;;;;;;7.63;6.15;;;;;;;10.76;86.02;99561.22;4968874;28;20058;-85
2022/04/22 04:45:29;;;;;;;7.90;7.18;;;;;;;10.75;85.12;99573.63;4966572;28;20090;-83
2022/04/22 04:47:56;;;;;;;7.20;6.60;;;;;;;10.67;85.67;99576.28;4965679;28;20054;-86
2022/04/22 04:50:22;;;;;;;6.95;6.35;;;;;;;10.64;86.56;99582.75;4966477;28;20457;-85
2022/04/22 04:52:49;;;;;;;7.55;6.82;;;;;;;10.67;85.48;99581.59;4965915;28;20070;-86
2022/04/22 04:55:16;;;;;;;5.65;5.15;;;;;;;10.55;85.18;99548.38;4966083;28;20058;-87
2022/04/22 04:57:43;;;;;;;7.20;6.43;;;;;;;10.69;85.30;99584.91;4965616;28;20102;-86
2022/04/22 05:00:16;;;;;;;6.38;5.85;;;;;;;10.39;85.33;99550.00;4967202;28;20047;-87
2022/04/22 05:02:45;;;;;;;6.60;5.90;;;;;;;10.41;85.17;99545.38;4966888;28;20564;-86
2022/04/22 05:05:12;;;;;;;6.47;5.88;;;;;;;10.27;85.67;99541.47;4967095;28;20050;-86
2022/04/22 05:07:59;;;;;;;9.40;6.38;;;;;;;10.58;85.78;99591.38;4966932;28;20063;-88
2022/04/22 05:10:30;;;;;;;6.55;6.05;;;;;;;10.09;86.06;99502.78;4965811;28;20054;-85
2022/04/22 05:12:57;;;;;;;8.00;6.00;;;;;;;10.03;86.02;99494.47;4962459;28;20062;-84
2022/04/22 05:15:24;;;;;;;6.30;5.72;;;;;;;10.46;86.47;99566.09;4946395;28;20055;-84
2022/04/22 05:17:53;;;;;;;6.88;5.38;;;;;;;10.61;85.63;99574.28;4963707;28;20061;-86
2022/04/22 05:20:22;;;;;;;6.90;6.32;;;;;;;10.54;86.14;99582.06;4966960;28;20058;-84
2022/04/22 05:22:48;;;;;;;6.50;6.00;;;;;;;10.25;85.76;99527.53;4965856;28;20058;-85
2022/04/22 05:25:16;;;;;;;7.18;6.57;;;;;;;10.36;86.31;99547.66;4970991;28;20051;-85
2022/04/22 05:27:43;;;;;;;6.88;6.18;;;;;;;10.45;86.09;99552.00;4974139;28;20046;-85
2022/04/22 05:32:58;;;;;;;7.70;5.40;;;;;;;10.53;86.62;99571.59;4968820;28;20062;-83
2022/04/22 05:35:27;;;;;;;6.50;6.00;;;;;;;10.19;86.34;99514.06;4967219;28;20061;-86
2022/04/22 05:37:55;;;;;;;6.65;6.03;;;;;;;10.69;85.61;99576.97;4967772;28;20051;-86
2022/04/22 05:40:24;;;;;;;6.47;5.88;;;;;;;10.16;86.18;99493.19;4966801;28;20055;-85
2022/04/22 05:42:53;;;;;;;6.53;6.03;;;;;;;10.13;86.87;99496.16;4967665;28;20236;-86
2022/04/22 05:45:21;;;;;;;5.80;5.30;;;;;;;10.37;85.84;99508.72;4966159;28;20496;-86
2022/04/22 05:47:50;;;;;;;7.30;6.70;;;;;;;9.95;87.18;99467.94;4963305;28;20055;-87
2022/04/22 05:50:18;;;;;;;6.72;6.15;;;;;;;10.58;86.49;99563.97;4950603;28;20161;-85
2022/04/22 05:52:46;;;;;;;7.00;6.22;;;;;;;10.69;86.44;99558.38;4947312;28;20059;-85
2022/04/22 05:55:18;;;;;;;6.72;6.13;;;;;;;10.63;86.60;99551.03;4931692;28;20437;-84
2022/04/22 05:57:47;;;;;;;7.25;6.57;;;;;;;10.72;86.64;99555.38;4948240;28;20244;-84
2022/04/22 06:00:18;;;;;;;6.38;5.88;;;;;;;10.61;86.46;99537.13;4947074;28;20606;-85
2022/04/22 06:02:46;;;;;;;6.05;5.55;;;;;;;10.67;86.61;99549.75;4946767;28;20510;-85
2022/04/22 06:05:15;;;;;;;6.13;5.57;;;;;;;9.92;86.56;99415.22;4948574;28;20051;-85
2022/04/22 06:07:43;;;;;;;6.72;6.13;;;;;;;10.64;86.88;99536.81;4958070;28;20046;-85
2022/04/22 06:12:58;;;;;;;6.63;6.03;;;;;;;9.66;87.08;99377.34;4967620;28;20051;-84
2022/04/22 06:15:25;;;;;;;6.05;5.45;;;;;;;10.74;87.26;99541.97;4964073;28;20050;-86
2022/04/22 06:17:52;;;;;;;6.30;5.80;;;;;;;10.73;86.58;99535.81;4965987;28;20531;-85
2022/04/22 06:20:19;;;;;;;8.57;5.78;;;;;;;10.65;86.45;99499.47;4966271;28;20047;-84
2022/04/22 06:22:46;;;;;;;6.60;6.00;;;;;;;10.71;86.52;99521.88;4965966;28;20062;-83
2022/04/22 06:25:13;;;;;;;6.63;6.07;;;;;;;10.55;86.42;99495.31;4962560;28;20058;-85
2022/04/22 06:27:41;;;;;;;6.55;5.78;;;;;;;10.68;86.04;99495.69;4964167;28;20051;-86
2022/04/22 06:30:10;;;;;;;10.90;6.03;;;;;;;10.79;86.75;99524.53;4966105;28;20057;-86
2022/04/22 06:32:39;;;;;;;6.47;5.97;;;;;;;10.82;86.41;99523.38;4965957;28;20476;-85
2022/04/22 06:35:07;;;;;;;6.95;6.25;;;;;;;10.76;86.70;99516.09;4967450;28;20055;-86
2022/04/22 06:37:44;;;;;;;6.28;5.78;;;;;;;10.29;88.02;99447.66;4966388;28;20251;-85
2022/04/22 06:45:49;;;;;;;5.93;5.43;;;;;;;10.14;86.90;99402.34;4967482;28;20285;-84
2022/04/22 06:48:18;;;;;;;5.72;5.32;;;;;;;10.90;86.76;99516.25;4965860;28;20707;-84
2022/04/22 06:51:08;;;;;;;6.35;5.85;;;;;;;10.97;86.48;99527.06;4948546;28;20134;-82
2022/04/22 06:53:36;;;;;;;6.85;6.30;;;;;;;10.92;86.62;99521.38;4969414;28;20117;-86
2022/04/22 06:56:06;;;;;;;6.22;5.72;;;;;;;10.57;87.46;99469.44;4969370;28;20137;-83
2022/04/22 06:58:37;;;;;;;5.75;5.25;;;;;;;10.93;88.03;99527.56;4969160;28;20067;-84
2022/04/22 07:01:05;;;;;;;5.30;4.90;;;;;;;10.89;86.74;99514.59;4969524;28;20058;-83
2022/04/22 07:03:52;;;;;;;6.00;5.55;;;;;;;10.64;87.02;99489.84;4956503;28;20047;-84
2022/04/22 07:06:19;;;;;;;6.50;6.00;;;;;;;10.10;86.64;99396.56;4970153;28;20058;-83
2022/04/22 07:08:46;;;;;;;5.90;5.40;;;;;;;10.96;87.21;99533.34;4968958;28;20058;-82
2022/04/22 07:11:27;;;;;;;5.70;5.20;;;;;;;10.97;87.50;99515.59;4953701;28;20220;-82
2022/04/22 07:13:56;;;;;;;6.32;5.70;;;;;;;10.63;87.36;99477.59;4969884;28;20054;-84
2022/04/22 07:16:23;;;;;;;6.40;5.80;;;;;;;10.96;87.91;99535.19;4968569;28;20042;-82
2022/04/22 07:18:54;;;;;;;6.05;5.55;;;;;;;11.02;87.85;99516.78;4969092;28;20051;-83
2022/04/22 07:21:21;;;;;;;6.25;5.75;;;;;;;11.02;87.19;99526.53;4966852;28;20054;-85
2022/04/22 07:23:48;;;;;;;5.78;5.30;;;;;;;10.99;87.17;99518.91;4966958;28;20378;-85
2022/04/22 07:26:17;;;;;;;5.85;5.38;;;;;;;10.93;87.13;99520.41;4966773;28;20149;-84
2022/04/22 07:28:48;;;;;;;5.50;5.10;;;;;;;10.96;87.23;99524.56;4968996;28;20050;-85
2022/04/22 07:31:18;;;;;;;5.90;5.40;;;;;;;10.94;87.53;99523.88;4967331;28;20218;-85
2022/04/22 07:33:45;;;;;;;6.30;5.78;;;;;;;11.02;87.95;99534.50;4967164;28;20055;-85
2022/04/22 07:36:12;;;;;;;5.72;5.22;;;;;;;11.10;87.50;99532.69;4966989;28;20050;-85
2022/04/22 07:38:39;;;;;;;8.07;5.93;;;;;;;10.75;86.74;99486.03;4966716;28;20050;-84
2022/04/22 07:41:07;;;;;;;6.20;5.70;;;;;;;10.57;87.54;99461.47;4967891;28;20073;-83
2022/04/22 07:49:08;;;;;;;7.47;6.45;;;;;;;11.04;86.09;99538.66;4967719;28;20512;-85
2022/04/22 07:51:35;;;;;;;6.80;6.10;;;;;;;11.20;85.92;99553.78;4968200;28;20051;-84
2022/04/22 07:54:01;;;;;;;6.38;5.80;;;;;;;11.02;85.96;99523.88;4968086;28;20059;-83
2022/04/22 07:56:29;;;;;;;6.78;6.18;;;;;;;11.09;86.42;99554.97;4968041;28;20492;-82
2022/04/22 07:58:56;;;;;;;7.28;6.68;;;;;;;10.94;87.04;99524.72;4966479;28;20497;-82
2022/04/22 08:01:24;;;;;;;7.57;6.97;;;;;;;11.12;87.09;99559.94;4966331;28;20046;-83
2022/04/22 08:03:53;;;;;;;7.43;6.82;;;;;;;11.15;86.16;99553.44;4966261;28;20059;-82
2022/04/22 08:06:20;;;;;;;7.60;6.90;;;;;;;11.16;86.54;99562.25;4968294;28;20165;-83
2022/04/22 08:08:47;;;;;;;8.32;7.53;;;;;;;10.77;86.63;99515.06;4966756;28;20058;-83
2022/04/22 08:11:14;;;;;;;8.93;8.13;;;;;;;10.98;86.69;99546.47;4966699;28;20051;-83
2022/04/22 08:13:41;;;;;;;8.95;7.07;;;;;;;10.91;86.82;99533.84;4966617;28;20059;-82
2022/04/22 08:16:08;;;;;;;8.57;6.95;;;;;;;10.69;87.03;99499.97;4966380;28;20047;-83
2022/04/22 08:18:36;;;;;;;8.48;7.60;;;;;;;10.67;87.18;99517.88;4966241;28;20082;-84
2022/04/22 08:21:03;;;;;;;7.75;7.07;;;;;;;10.90;86.67;99532.19;4967687;28;20117;-81
2022/04/22 08:23:30;;;;;;;7.93;7.20;;;;;;;11.02;86.60;99569.03;4967132;28;20066;-84
2022/04/22 08:25:57;;;;;;;8.50;7.72;;;;;;;10.82;87.39;99534.00;4967438;28;20065;-80
2022/04/22 08:28:24;;;;;;;8.45;7.65;;;;;;;10.81;87.92;99549.09;4965982;28;20047;-83
2022/04/22 08:30:51;;;;;;;9.20;7.78;;;;;;;10.96;87.97;99572.38;4966452;28;20055;-83
2022/04/22 08:33:17;;;;;;;8.75;7.95;;;;;;;11.00;88.13;99579.84;4966183;28;20060;-85
2022/04/22 08:35:44;;;;;;;8.45;7.68;;;;;;;11.06;86.99;99573.03;4966516;28;20046;-85
2022/04/22 08:38:11;;;;;;;8.93;8.07;;;;;;;11.02;86.98;99571.69;4965723;28;20057;-83
2022/04/22 08:40:38;;;;;;;9.07;8.30;;;;;;;10.90;87.28;99564.06;4965624;28;20235;-83
2022/04/22 08:43:08;;;;;;;7.72;7.05;;;;;;;11.10;87.55;99580.50;4966107;28;20066;-84
2022/04/22 08:45:35;;;;;;;9.27;8.45;;;;;;;10.97;86.67;99547.44;4967468;28;20461;-85
2022/04/22 08:50:55;;;;;;;8.23;7.43;;;;;;;11.07;87.32;99585.34;4969017;28;20051;-85
2022/04/22 08:53:23;;;;;;;10.05;9.15;;;;;;;10.99;87.50;99564.88;4976195;28;20130;-83
2022/04/22 08:55:56;;;;;;;8.95;8.25;;;;;;;11.04;88.38;99590.94;4973397;28;20058;-82
2022/04/22 08:58:28;;;;;;;8.90;8.15;;;;;;;11.12;87.47;99596.28;4970016;28;20439;-83
2022/04/22 09:00:59;;;;;;;8.95;8.25;;;;;;;10.89;87.83;99569.53;4969676;28;20515;-85
2022/04/22 09:03:27;;;;;;;8.52;7.47;;;;;;;10.09;88.13;99423.22;4965297;28;20427;-85
2022/04/22 09:05:58;;;;;;;8.95;7.57;;;;;;;11.21;87.80;99613.88;4966799;28;20043;-83
2022/04/22 09:08:26;;;;;;;8.05;7.35;;;;;;;11.12;87.07;99583.84;4964736;28;20058;-88
2022/04/22 09:10:54;;;;;;;7.10;6.50;;;;;;;10.79;87.16;99540.47;4966520;28;20172;-84
2022/04/22 09:13:30;;;;;;;8.57;7.40;;;;;;;10.45;87.18;99490.97;4964504;28;20050;-84
2022/04/22 09:15:58;;;;;;;9.18;8.38;;;;;;;10.98;87.45;99578.34;4963747;28;20050;-83
2022/04/22 09:18:41;;;;;;;11.85;8.65;;;;;;;11.15;87.25;99613.72;4965675;28;20405;-84
2022/04/22 09:21:18;;;;;;;9.90;9.00;;;;;;;11.00;87.36;99579.00;4964720;28;20057;-83
2022/04/22 09:23:46;;;;;;;9.50;8.68;;;;;;;10.76;86.91;99556.72;4965021;28;20054;-83
2022/04/22 09:26:24;;;;;;;9.68;8.77;;;;;;;10.99;88.05;99610.03;4964595;28;20249;-84
2022/04/22 09:29:01;;;;;;;8.82;8.02;;;;;;;11.05;88.21;99608.56;4964955;28;20062;-84
2022/04/22 09:31:28;;;;;;;9.38;8.57;;;;;;;11.17;87.64;99614.41;4965243;28;20120;-84
2022/04/22 09:33:56;;;;;;;10.48;9.48;;;;;;;11.23;86.73;99606.56;4965646;28;20047;-84
2022/04/22 09:44:51;;;;;;;9.88;8.98;;;;;;;11.39;87.10;99632.34;4967834;28;20066;-85
2022/04/22 09:47:18;;;;;;;10.98;9.70;;;;;;;11.27;87.17;99618.53;4965566;28;20154;-85
2022/04/22 09:49:45;;;;;;;10.00;9.10;;;;;;;11.39;87.61;99636.84;4968473;28;20047;-85
2022/04/22 09:52:12;;;;;;;10.85;9.95;;;;;;;11.01;87.10;99580.66;4978217;28;20061;-84
2022/04/22 09:54:39;;;;;;;10.73;9.77;;;;;;;10.99;87.51;99583.47;4971353;28;20058;-84
2022/04/22 09:57:26;;;;;;;10.07;9.07;;;;;;;11.10;87.08;99582.34;4966540;28;20061;-86
2022/04/22 09:59:53;;;;;;;9.95;9.05;;;;;;;11.41;85.82;99619.72;4965006;28;20437;-85
2022/04/22 10:02:25;;;;;;;9.93;9.07;;;;;;;11.39;86.50;99621.72;4962208;28;20058;-84
2022/04/22 10:04:53;;;;;;;;;;;;;;;11.47;86.87;99647.47;4962134;28;20475;-84
2022/04/22 10:07:25;;;;;;;10.52;9.50;;;;;;;11.22;86.91;99594.31;4966091;28;19925;-83
2022/04/22 10:09:54;;;;;;;9.52;8.63;;;;;;;11.67;86.15;99650.59;4964571;28;20078;-84
2022/04/22 10:12:22;;;;;;;10.75;9.13;;;;;;;10.70;86.73;99525.50;4964228;28;20054;-85
2022/04/22 10:14:53;;;;;;;9.52;8.73;;;;;;;10.74;87.36;99520.72;4965722;28;20058;-84
2022/04/22 10:17:20;;;;;;;10.88;9.95;;;;;;;11.63;87.15;99668.72;4965121;28;20511;-84
2022/04/22 10:19:48;;;;;;;10.02;9.23;;;;;;;10.55;86.55;99487.34;4966464;28;20062;-86
2022/04/22 10:22:17;;;;;;;10.00;9.02;;;;;;;11.54;87.16;99662.56;4965549;28;20055;-84
2022/04/22 10:24:44;;;;;;;11.80;10.68;;;;;;;10.39;86.92;99465.09;4966359;28;20055;-83
2022/04/22 10:27:13;;;;;;;10.95;9.95;;;;;;;11.66;87.12;99665.72;4968459;28;20053;-83
2022/04/22 10:29:42;;;;;;;10.95;9.98;;;;;;;11.55;87.47;99652.75;4968123;28;20050;-85
2022/04/22 10:32:12;;;;;;;9.52;8.68;;;;;;;11.74;86.32;99668.38;4969240;28;20513;-82
2022/04/22 10:34:41;;;;;;;11.20;10.10;;;;;;;11.26;86.93;99585.00;4967692;28;20082;-82
2022/04/22 10:37:18;;;;;;;9.20;8.38;;;;;;;11.75;86.89;99672.72;4968500;28;20066;-83
2022/04/22 10:39:51;;;;;;;10.40;9.50;;;;;;;11.65;86.73;99664.09;4967677;28;20046;-83
2022/04/22 10:42:41;;;;;;;10.48;8.45;;;;;;;11.74;87.28;99673.69;4967423;28;20488;-84
2022/04/22 10:48:29;;;;;;;9.00;8.20;;;;;;;11.85;87.06;99685.03;4969073;28;20062;-86
2022/04/22 10:51:00;;;;;;;9.35;8.48;;;;;;;11.74;87.43;99676.34;4968915;28;20476;-84
2022/04/22 10:53:40;;;;;;;10.02;9.13;;;;;;;11.71;87.06;99666.06;4967236;28;20329;-83
2022/04/22 10:56:25;;;;;;;9.65;8.85;;;;;;;11.91;86.75;99681.72;4968883;28;20298;-86
2022/04/22 10:59:28;;;;;;;9.68;8.77;;;;;;;11.46;86.87;99629.88;4965996;28;20058;-84
2022/04/22 11:01:56;;;;;;;9.98;9.07;;;;;;;11.58;86.56;99652.44;4937442;28;20485;-84
2022/04/22 11:04:26;;;;;;;10.07;9.20;;;;;;;11.73;87.27;99672.03;4968698;28;20047;-85
2022/04/22 11:06:53;;;;;;;10.32;9.32;;;;;;;11.51;85.41;99616.91;4968591;28;20142;-84
2022/04/22 11:09:29;;;;;;;9.93;9.05;;;;;;;11.91;86.29;99698.50;4952194;28;20228;-84
2022/04/22 11:11:58;;;;;;;12.10;10.85;;;;;;;11.86;86.26;99710.59;4951423;28;20497;-85
2022/04/22 11:14:31;;;;;;;10.90;9.93;;;;;;;11.89;86.08;99708.50;4968009;28;20053;-84
2022/04/22 11:17:46;;;;;;;11.82;10.73;;;;;;;11.58;86.81;99667.53;4968585;28;20050;-84
2022/04/22 11:20:13;;;;;;;12.15;10.93;;;;;;;11.68;87.13;99690.34;4964352;28;20074;-85
2022/04/22 11:22:58;;;;;;;13.80;12.40;;;;;;;11.58;88.26;99689.66;4968772;28;20054;-84
2022/04/22 11:25:27;;;;;;;13.10;11.80;;;;;;;11.76;88.16;99708.94;4968495;28;20062;-85
2022/04/22 11:27:55;;;;;;;13.25;12.05;;;;;;;11.86;87.68;99714.09;4969090;28;20488;-82
2022/04/22 11:30:23;;;;;;;13.30;12.10;;;;;;;11.75;87.76;99719.75;4968681;28;20347;-82
2022/04/22 11:32:56;;;;;;;12.93;11.73;;;;;;;11.66;87.73;99692.31;4968668;28;20039;-84
2022/04/22 11:35:32;;;;;;;13.63;12.32;;;;;;;11.77;87.31;99699.13;4969685;28;20058;-84
2022/04/22 11:38:04;;;;;;;12.70;11.60;;;;;;;11.80;87.58;99717.44;4968183;28;20313;-83
2022/04/22 11:40:35;;;;;;;12.93;11.75;;;;;;;11.72;88.17;99707.63;4970180;28;20078;-84
2022/04/22 11:43:21;;;;;;;13.18;11.98;;;;;;;11.67;87.67;99703.78;4970321;28;20049;-84
2022/04/22 11:45:49;;;;;;;12.43;11.35;;;;;;;11.79;87.78;99722.91;4968728;28;20054;-83
2022/04/22 11:48:25;;;;;;;12.38;11.27;;;;;;;11.86;87.49;99731.88;4970460;28;20501;-84
2022/04/22 11:50:56;;;;;;;12.50;11.20;;;;;;;10.67;87.42;99541.78;4970175;28;20051;-84
2022/04/22 11:53:29;;;;;;;13.73;12.38;;;;;;;11.47;88.36;99682.00;4968622;28;20051;-82
2022/04/22 11:55:55;;;;;;;12.57;11.48;;;;;;;11.85;87.47;99735.56;4968769;28;20117;-84
2022/04/22 11:58:27;;;;;;;13.32;12.10;;;;;;;12.00;87.57;99763.16;4968624;28;20059;-83
2022/04/22 12:06:42;;;;;;;14.50;13.20;;;;;;;12.06;86.54;99759.81;4969854;28;20055;-83
2022/04/22 12:09:08;;;;;;;15.60;14.07;;;;;;;12.11;86.78;99759.34;4968482;28;20046;-84
2022/04/22 12:11:41;;;;;;;14.77;13.38;;;;;;;11.92;87.46;99756.03;4969444;28;20456;-85
2022/04/22 12:14:08;;;;;;;15.20;13.68;;;;;;;11.85;88.15;99752.31;4968645;28;20254;-84
2022/04/22 12:16:34;;;;;;;16.55;14.93;;;;;;;10.87;86.56;99572.34;4967683;28;20057;-83
2022/04/22 12:19:01;;;;;;;16.67;15.07;;;;;;;11.62;86.54;99696.28;4967748;28;20043;-85
2022/04/22 12:21:33;;;;;;;16.33;14.85;;;;;;;12.16;86.18;99772.97;4968268;28;20057;-84
2022/04/22 12:24:02;;;;;;;15.70;14.10;;;;;;;12.16;86.11;99779.13;4968844;28;20051;-83
2022/04/22 12:26:41;;;;;;;15.43;13.98;;;;;;;11.49;86.36;99678.19;4976016;28;20051;-83
2022/04/22 12:29:10;;;;;;;14.75;13.35;;;;;;;11.80;86.37;99735.22;4973922;28;20059;-85
2022/04/22 12:31:39;;;;;;;15.38;13.80;;;;;;;11.91;87.24;99769.47;4971306;28;20050;-83
2022/04/22 12:34:08;;;;;;;15.40;14.00;;;;;;;11.80;87.38;99754.66;4971972;28;20047;-83
2022/04/22 12:37:00;;;;;;;17.25;15.55;;;;;;;11.87;88.21;99770.78;4972174;28;20054;-83
2022/04/22 12:39:44;;;;;;;16.40;14.80;;;;;;;11.93;88.33;99780.78;4964644;28;20058;-82
2022/04/22 12:42:17;;;;;;;16.83;15.23;;;;;;;12.08;88.03;99800.41;4967700;28;20059;-82
2022/04/22 12:53:33;;;;;;;15.93;14.43;;;;;;;12.09;88.30;99794.09;4968858;28;20597;-83